Time;durP1;ratioP1;P1;durP2;ratioP2;P2;SDS_P1;SDS_P2;PMS_P1;PMS_P2;Temp;Humidity;BMP_temperature;BMP_pressure;BME280_temperature;BME280_humidity;BME280_pressure;Samples;Min_cycle;Max_cycle;Signal;HPM_P1;HPM_P2
2022/12/28 00:01:32;;;;;;;10.02;4.15;;;;;;;5.83;100.00;101471.66;5008727;28;20057;-71
2022/12/28 00:03:59;;;;;;;10.32;3.90;;;;;;;5.83;100.00;101471.66;5013666;28;20033;-71
2022/12/28 00:06:25;;;;;;;8.65;3.72;;;;;;;5.84;100.00;101469.78;5012357;28;20026;-72
2022/12/28 00:08:53;;;;;;;10.52;4.32;;;;;;;5.88;100.00;101460.38;5012455;28;20041;-72
2022/12/28 00:11:19;;;;;;;8.80;4.03;;;;;;;5.88;100.00;101459.53;5011489;28;20117;-70
2022/12/28 00:13:45;;;;;;;12.73;4.28;;;;;;;5.90;100.00;101446.75;5020426;28;20033;-73
2022/12/28 00:16:16;;;;;;;10.00;4.50;;;;;;;5.85;100.00;101437.38;5030768;28;20036;-70
2022/12/28 00:18:41;;;;;;;10.05;4.60;;;;;;;5.89;100.00;101423.59;5032244;28;20063;-70
2022/12/28 00:21:07;;;;;;;11.40;4.40;;;;;;;5.85;100.00;101421.25;5030591;28;20179;-71
2022/12/28 00:23:32;;;;;;;8.68;4.18;;;;;;;5.88;100.00;101409.31;5026213;28;20037;-71
2022/12/28 00:26:09;;;;;;;8.07;4.35;;;;;;;5.88;100.00;101389.69;5016424;28;20037;-73
2022/12/28 00:28:35;;;;;;;7.15;3.70;;;;;;;5.89;100.00;101384.16;5016117;28;20370;-71
2022/12/28 00:31:01;;;;;;;10.23;4.45;;;;;;;5.89;100.00;101383.28;5047989;28;20046;-71
2022/12/28 00:33:27;;;;;;;10.82;4.07;;;;;;;5.89;100.00;101388.66;5024944;28;20038;-72
2022/12/28 00:35:54;;;;;;;8.65;3.85;;;;;;;5.93;100.00;101389.97;5014960;28;20029;-71
2022/12/28 00:38:19;;;;;;;7.50;4.10;;;;;;;5.94;100.00;101389.78;5016261;28;20045;-72
2022/12/28 00:40:44;;;;;;;7.40;3.80;;;;;;;5.95;100.00;101382.56;5014761;28;20029;-70
2022/12/28 00:43:10;;;;;;;9.73;3.95;;;;;;;5.95;100.00;101380.72;5019367;28;20033;-72
2022/12/28 00:45:35;;;;;;;9.13;4.28;;;;;;;5.99;100.00;101378.53;5030105;28;20068;-72
2022/12/28 00:48:00;;;;;;;9.70;4.28;;;;;;;6.00;100.00;101375.66;5015785;28;20026;-71
2022/12/28 00:50:26;;;;;;;8.18;3.80;;;;;;;5.99;100.00;101371.34;5048066;28;20037;-72
2022/12/28 00:52:51;;;;;;;8.95;4.50;;;;;;;6.01;100.00;101360.41;5048314;28;20026;-70
2022/12/28 00:55:16;;;;;;;8.20;3.92;;;;;;;6.04;100.00;101351.97;5035156;28;20036;-71
2022/12/28 00:57:42;;;;;;;9.68;4.18;;;;;;;6.03;100.00;101342.25;5035877;28;20412;-72
2022/12/28 01:00:08;;;;;;;8.80;4.70;;;;;;;6.03;100.00;101339.56;5030764;28;20042;-70
2022/12/28 01:02:33;;;;;;;8.10;4.45;;;;;;;6.03;100.00;101342.25;5031475;28;20033;-72
2022/12/28 01:04:58;;;;;;;9.38;4.28;;;;;;;6.06;100.00;101341.88;5030455;28;20048;-72
2022/12/28 01:07:23;;;;;;;8.57;4.20;;;;;;;6.05;100.00;101336.69;5015137;28;20068;-71
2022/12/28 01:09:49;;;;;;;6.82;4.18;;;;;;;6.08;100.00;101333.63;5015579;28;20057;-70
2022/12/28 01:12:14;;;;;;;9.40;4.40;;;;;;;6.10;100.00;101329.75;5015035;28;20029;-72
2022/12/28 01:14:39;;;;;;;8.02;4.07;;;;;;;6.09;100.00;101325.38;5030638;28;20108;-70
2022/12/28 01:17:05;;;;;;;7.28;4.20;;;;;;;6.09;100.00;101330.75;5031607;28;20045;-71
2022/12/28 01:19:30;;;;;;;9.35;4.40;;;;;;;6.12;100.00;101329.56;5033876;28;20128;-72
2022/12/28 01:21:56;;;;;;;7.20;4.05;;;;;;;6.13;100.00;101310.56;5033752;28;20120;-71
2022/12/28 01:24:22;;;;;;;6.40;4.30;;;;;;;6.14;100.00;101314.91;5033768;28;20587;-71
2022/12/28 01:26:47;;;;;;;8.45;4.22;;;;;;;6.15;100.00;101313.91;5034879;28;20052;-73
2022/12/28 01:29:12;;;;;;;6.97;4.13;;;;;;;6.17;100.00;101311.84;5033579;28;20033;-72
2022/12/28 01:31:38;;;;;;;7.85;4.13;;;;;;;6.16;100.00;101304.81;5033761;28;20036;-72
2022/12/28 01:34:03;;;;;;;7.22;4.18;;;;;;;6.17;100.00;101298.41;5024047;28;20045;-72
2022/12/28 01:36:30;;;;;;;6.75;3.95;;;;;;;6.18;100.00;101299.28;5034932;28;20060;-72
2022/12/28 01:38:58;;;;;;;7.40;4.20;;;;;;;6.19;100.00;101292.88;5033540;28;20030;-70
2022/12/28 01:41:26;;;;;;;6.05;3.80;;;;;;;6.24;100.00;101297.69;5033205;28;20082;-71
2022/12/28 01:43:51;;;;;;;11.52;4.10;;;;;;;6.25;100.00;101289.44;5032217;28;20030;-70
2022/12/28 01:46:21;;;;;;;10.23;3.95;;;;;;;6.28;100.00;101280.16;5032932;28;20033;-72
2022/12/28 01:49:09;;;;;;;6.13;3.80;;;;;;;6.30;100.00;101286.22;5015596;28;20029;-71
2022/12/28 01:51:53;;;;;;;6.63;3.85;;;;;;;6.33;100.00;101277.78;5014540;28;20041;-72
2022/12/28 01:54:20;;;;;;;9.20;3.92;;;;;;;6.31;100.00;101269.03;5025444;28;20040;-72
2022/12/28 01:56:47;;;;;;;8.13;4.07;;;;;;;6.34;100.00;101271.34;5033281;28;20026;-71
2022/12/28 01:59:12;;;;;;;7.18;3.65;;;;;;;6.36;100.00;101247.81;5032963;28;20029;-70
2022/12/28 02:01:38;;;;;;;7.57;3.50;;;;;;;6.36;100.00;101255.88;5028477;28;20405;-72
2022/12/28 02:04:03;;;;;;;7.22;3.92;;;;;;;6.39;100.00;101250.97;5031663;28;20030;-71
2022/12/28 02:06:30;;;;;;;9.82;4.00;;;;;;;6.41;100.00;101237.34;5032706;28;20037;-73
2022/12/28 02:09:08;;;;;;;6.20;3.60;;;;;;;6.44;100.00;101236.13;5034296;28;20052;-71
2022/12/28 02:11:35;;;;;;;6.60;3.75;;;;;;;6.45;100.00;101225.19;5033948;28;20059;-73
2022/12/28 02:14:01;;;;;;;6.72;3.50;;;;;;;6.49;100.00;101221.09;5028471;28;20520;-73
2022/12/28 02:16:27;;;;;;;7.32;3.40;;;;;;;6.50;100.00;101213.88;5026167;28;20409;-70
2022/12/28 02:18:53;;;;;;;8.90;3.53;;;;;;;6.51;100.00;101205.63;5032896;28;20033;-72
2022/12/28 02:21:28;;;;;;;7.47;3.50;;;;;;;6.52;100.00;101191.16;5033905;28;20477;-72
2022/12/28 02:24:18;;;;;;;9.40;3.95;;;;;;;6.55;100.00;101193.47;5016133;28;20486;-71
2022/12/28 02:26:53;;;;;;;7.72;4.07;;;;;;;6.56;100.00;101192.41;5014220;28;20026;-70
2022/12/28 02:29:39;;;;;;;5.07;3.40;;;;;;;6.54;100.00;101181.03;5013657;28;20053;-70
2022/12/28 02:32:38;;;;;;;8.80;3.50;;;;;;;6.58;100.00;101168.03;5012215;28;20757;-71
2022/12/28 02:35:11;;;;;;;6.75;3.67;;;;;;;6.54;100.00;101167.59;5030432;28;20057;-72
2022/12/28 02:37:47;;;;;;;7.40;4.00;;;;;;;6.51;100.00;101170.66;5031309;28;20025;-71
2022/12/28 02:40:18;;;;;;;9.10;4.10;;;;;;;6.50;100.00;101166.28;5013582;28;20034;-72
2022/12/28 02:42:45;;;;;;;8.23;4.07;;;;;;;6.49;100.00;101161.09;5013898;28;20069;-71
2022/12/28 02:51:23;;;;;;;8.85;4.55;;;;;;;6.49;100.00;101147.66;5013780;28;20049;-72
2022/12/28 02:53:58;;;;;;;6.80;3.97;;;;;;;6.46;100.00;101148.91;5020463;28;20079;-72
2022/12/28 02:56:43;;;;;;;6.07;4.15;;;;;;;6.45;100.00;101151.78;5032818;28;20432;-71
2022/12/28 02:59:28;;;;;;;7.10;4.38;;;;;;;6.46;100.00;101135.47;5033145;28;20036;-72
2022/12/28 03:02:17;;;;;;;9.60;3.65;;;;;;;6.44;100.00;101140.19;5030786;28;20080;-72
2022/12/28 03:05:06;;;;;;;6.65;4.10;;;;;;;6.45;100.00;101133.78;5029501;28;20037;-70
2022/12/28 03:10:43;;;;;;;8.43;4.60;;;;;;;6.40;100.00;101136.19;5013276;28;20121;-72
2022/12/28 03:16:12;;;;;;;8.63;4.82;;;;;;;6.37;100.00;101123.13;5032888;28;20084;-72
2022/12/28 03:32:54;;;;;;;8.23;4.80;;;;;;;6.44;100.00;101102.53;5019081;28;20043;-70
2022/12/28 03:35:26;;;;;;;9.30;4.72;;;;;;;6.42;100.00;101112.66;5032270;28;20033;-72
2022/12/28 03:37:57;;;;;;;6.85;4.60;;;;;;;6.44;100.00;101099.84;5024261;28;20034;-70
2022/12/28 03:40:34;;;;;;;7.35;5.13;;;;;;;6.49;100.00;101113.56;5011379;28;20458;-70
2022/12/28 03:46:03;;;;;;;7.28;5.10;;;;;;;6.50;100.00;101112.53;5027156;28;20052;-71
2022/12/28 03:48:32;;;;;;;7.40;4.97;;;;;;;6.51;100.00;101103.44;5032329;28;20030;-72
2022/12/28 03:50:58;;;;;;;10.13;5.22;;;;;;;6.52;100.00;101080.91;5031233;28;20029;-70
2022/12/28 03:53:29;;;;;;;7.32;5.30;;;;;;;6.55;100.00;101088.59;5028886;28;20029;-71
2022/12/28 03:56:15;;;;;;;10.45;5.45;;;;;;;6.59;100.00;101082.84;5031036;28;20121;-72
2022/12/28 03:58:41;;;;;;;8.98;4.78;;;;;;;6.60;100.00;101079.09;5032555;28;20029;-71
2022/12/28 04:01:06;;;;;;;6.65;4.55;;;;;;;6.66;100.00;101078.34;5029872;28;20129;-72
2022/12/28 04:07:07;;;;;;;8.23;4.35;;;;;;;6.70;100.00;101076.91;5011600;28;20115;-71
2022/12/28 04:09:33;;;;;;;8.25;4.53;;;;;;;6.71;100.00;101076.72;5031856;28;20506;-72
2022/12/28 04:11:58;;;;;;;7.68;4.40;;;;;;;6.73;100.00;101068.47;5032378;28;20116;-71
2022/12/28 04:14:23;;;;;;;7.32;4.40;;;;;;;6.77;100.00;101069.75;5030882;28;20129;-71
2022/12/28 04:16:49;;;;;;;9.07;4.75;;;;;;;6.80;100.00;101074.75;5032281;28;20034;-71
2022/12/28 04:19:14;;;;;;;8.70;4.63;;;;;;;6.84;100.00;101073.34;5015821;28;20040;-71
2022/12/28 04:21:39;;;;;;;9.98;4.68;;;;;;;6.86;100.00;101073.97;5012560;28;20022;-70
2022/12/28 04:24:05;;;;;;;7.35;3.92;;;;;;;6.90;100.00;101069.03;5024795;28;20454;-71
2022/12/28 04:26:30;;;;;;;6.45;4.40;;;;;;;6.89;100.00;101060.13;5011977;28;20026;-71
2022/12/28 04:29:00;;;;;;;8.65;4.15;;;;;;;6.96;100.00;101070.09;5012727;28;20162;-70
2022/12/28 04:31:26;;;;;;;8.43;4.55;;;;;;;6.98;100.00;101073.44;5012281;28;20029;-72
2022/12/28 04:33:51;;;;;;;7.07;4.15;;;;;;;7.01;100.00;101070.34;5025175;28;20036;-71
2022/12/28 04:36:17;;;;;;;7.50;4.30;;;;;;;7.01;100.00;101073.03;5032144;28;20558;-70
2022/12/28 04:38:42;;;;;;;7.93;4.05;;;;;;;7.06;100.00;101075.97;5013507;28;20072;-72
2022/12/28 04:41:09;;;;;;;9.02;4.32;;;;;;;7.07;100.00;101066.88;5011011;28;20080;-72
2022/12/28 04:43:35;;;;;;;10.15;4.50;;;;;;;7.06;100.00;101063.34;5022856;28;20057;-71
2022/12/28 04:46:03;;;;;;;11.48;4.70;;;;;;;7.06;100.00;101059.81;5029843;28;20029;-72
2022/12/28 04:48:29;;;;;;;9.45;4.57;;;;;;;7.07;100.00;101066.88;5031202;28;20037;-71
2022/12/28 04:50:56;;;;;;;7.38;4.20;;;;;;;7.08;100.00;101068.53;5032253;28;20480;-71
2022/12/28 04:53:21;;;;;;;9.65;4.80;;;;;;;7.06;100.00;101065.19;5022102;28;20033;-72
2022/12/28 04:55:47;;;;;;;8.13;4.40;;;;;;;7.07;100.00;101074.94;5012815;28;20080;-72
2022/12/28 04:58:12;;;;;;;6.13;3.75;;;;;;;7.13;100.00;101060.69;5011438;28;20037;-72
2022/12/28 05:00:38;;;;;;;6.97;4.55;;;;;;;7.11;100.00;101065.47;5023950;28;20762;-70
2022/12/28 05:03:04;;;;;;;7.43;4.65;;;;;;;7.12;100.00;101056.34;5031676;28;20042;-71
2022/12/28 05:05:29;;;;;;;8.15;4.43;;;;;;;7.11;100.00;101052.00;5031939;28;20029;-72
2022/12/28 05:07:59;;;;;;;7.65;4.68;;;;;;;7.10;100.00;101061.09;5031378;28;20034;-72
2022/12/28 05:10:24;;;;;;;8.02;4.82;;;;;;;7.14;100.00;101054.31;5035196;28;20048;-70
2022/12/28 05:12:50;;;;;;;9.32;4.43;;;;;;;7.13;100.00;101049.94;5035386;28;20033;-72
2022/12/28 05:15:15;;;;;;;8.60;4.55;;;;;;;7.14;100.00;101051.63;5024187;28;20458;-71
2022/12/28 05:17:40;;;;;;;7.35;4.10;;;;;;;7.16;100.00;101057.63;5016961;28;20080;-70
2022/12/28 05:20:06;;;;;;;9.82;4.50;;;;;;;7.12;100.00;101056.34;5035461;28;20077;-71
2022/12/28 05:22:31;;;;;;;6.35;4.45;;;;;;;7.12;100.00;101056.34;5034738;28;20021;-71
2022/12/28 05:24:57;;;;;;;5.60;3.95;;;;;;;7.14;100.00;101048.91;5035144;28;20021;-70
2022/12/28 05:27:22;;;;;;;8.25;4.45;;;;;;;7.14;100.00;101048.06;5034625;28;20112;-72
2022/12/28 05:29:47;;;;;;;6.80;4.22;;;;;;;7.15;100.00;101042.47;5024190;28;20030;-70
2022/12/28 05:32:13;;;;;;;7.88;4.35;;;;;;;7.16;100.00;101043.34;5015264;28;20060;-71
2022/12/28 05:34:38;;;;;;;6.32;4.47;;;;;;;7.16;100.00;101040.66;5015045;28;20061;-70
2022/12/28 05:37:03;;;;;;;8.43;4.50;;;;;;;7.16;100.00;101046.03;5015128;28;20033;-71
2022/12/28 05:39:28;;;;;;;8.35;4.93;;;;;;;7.16;100.00;101041.47;5030065;28;20057;-71
2022/12/28 05:41:58;;;;;;;8.18;4.75;;;;;;;7.17;100.00;101048.53;5034767;28;20087;-72
2022/12/28 05:44:24;;;;;;;7.35;4.20;;;;;;;7.19;100.00;101051.84;5026610;28;20026;-72
2022/12/28 05:46:49;;;;;;;9.05;4.53;;;;;;;7.21;100.00;101055.16;5033079;28;20056;-72
2022/12/28 05:49:14;;;;;;;8.65;4.32;;;;;;;7.24;100.00;101043.16;5033333;28;20052;-71
2022/12/28 05:51:40;;;;;;;8.15;4.35;;;;;;;7.24;100.00;101038.59;5034820;28;20031;-72
2022/12/28 05:54:05;;;;;;;8.70;4.20;;;;;;;7.24;100.00;101049.38;5034983;28;20369;-71
2022/12/28 05:56:31;;;;;;;8.60;4.18;;;;;;;7.24;100.00;101049.38;5034381;28;20461;-71
2022/12/28 05:58:59;;;;;;;7.15;4.13;;;;;;;7.22;100.00;101037.97;5033356;28;20036;-72
2022/12/28 06:01:27;;;;;;;7.18;4.05;;;;;;;7.25;100.00;101039.47;5025778;28;20052;-71
2022/12/28 06:04:01;;;;;;;6.65;4.00;;;;;;;7.28;100.00;101031.81;5034305;28;20108;-72
2022/12/28 06:06:28;;;;;;;8.32;3.90;;;;;;;7.27;100.00;101032.00;5034154;28;20029;-71
2022/12/28 06:08:53;;;;;;;5.80;4.30;;;;;;;7.31;100.00;101027.03;5032395;28;20038;-72
2022/12/28 06:11:25;;;;;;;7.88;4.03;;;;;;;7.34;100.00;101023.97;5015483;28;20084;-71
2022/12/28 06:13:50;;;;;;;8.63;3.90;;;;;;;7.30;100.00;101020.00;5014479;28;20076;-70
2022/12/28 06:16:50;;;;;;;4.60;3.38;;;;;;;7.33;100.00;101011.53;5014005;28;20033;-69
2022/12/28 06:19:23;;;;;;;6.07;3.70;;;;;;;7.33;100.00;101006.16;5027574;28;20481;-70
2022/12/28 06:21:48;;;;;;;5.63;3.70;;;;;;;7.34;100.00;101005.13;5033979;28;20033;-71
2022/12/28 06:24:13;;;;;;;7.07;4.00;;;;;;;7.35;100.00;100998.69;5034051;28;20034;-70
2022/12/28 06:26:40;;;;;;;6.40;3.75;;;;;;;7.37;100.00;101005.56;5033504;28;20033;-70
2022/12/28 06:29:06;;;;;;;5.10;3.38;;;;;;;7.37;100.00;100991.28;5032794;28;20037;-70
2022/12/28 06:31:34;;;;;;;3.72;3.10;;;;;;;7.36;100.00;100990.41;5014097;28;20397;-70
2022/12/28 06:34:01;;;;;;;7.47;3.70;;;;;;;7.39;100.00;100986.50;5012798;28;20052;-70
2022/12/28 06:36:32;;;;;;;4.60;3.60;;;;;;;7.39;100.00;100981.13;5013812;28;20458;-70
2022/12/28 06:38:59;;;;;;;6.95;4.00;;;;;;;7.41;100.00;100984.44;5024076;28;20029;-71
2022/12/28 06:41:25;;;;;;;5.50;4.10;;;;;;;7.42;100.00;100980.72;5033558;28;20022;-73
2022/12/28 06:43:51;;;;;;;5.70;3.95;;;;;;;7.43;100.00;100977.00;5033560;28;20083;-72
2022/12/28 06:46:19;;;;;;;5.25;3.40;;;;;;;7.42;100.00;100978.03;5014972;28;20478;-73
2022/12/28 06:48:44;;;;;;;6.30;3.85;;;;;;;7.44;100.00;100965.19;5021250;28;20037;-71
2022/12/28 06:51:18;;;;;;;7.97;3.75;;;;;;;7.43;100.00;100977.81;5033498;28;20040;-72
2022/12/28 06:53:44;;;;;;;9.85;3.80;;;;;;;7.47;100.00;100974.72;5032935;28;20087;-73
2022/12/28 06:56:13;;;;;;;5.53;3.72;;;;;;;7.47;100.00;100983.63;5033182;28;20152;-74
2022/12/28 06:58:39;;;;;;;4.40;3.50;;;;;;;7.47;100.00;100978.25;5031567;28;20036;-76
2022/12/28 07:01:08;;;;;;;8.10;3.85;;;;;;;7.49;100.00;100973.50;5030373;28;20401;-76
2022/12/28 07:03:33;;;;;;;8.63;3.92;;;;;;;7.48;100.00;100974.53;5019491;28;20041;-74
2022/12/28 07:06:00;;;;;;;6.60;3.72;;;;;;;7.52;100.00;100973.09;5028613;28;20132;-73
2022/12/28 07:08:25;;;;;;;9.30;3.95;;;;;;;7.50;100.00;100967.06;5031818;28;20030;-76
2022/12/28 07:10:51;;;;;;;6.93;3.70;;;;;;;7.52;100.00;100965.03;5032812;28;20048;-76
2022/12/28 07:13:16;;;;;;;6.78;3.47;;;;;;;7.54;100.00;100978.28;5031915;28;20068;-74
2022/12/28 07:15:41;;;;;;;7.53;3.63;;;;;;;7.55;100.00;100971.84;5033149;28;20029;-75
2022/12/28 07:18:07;;;;;;;9.35;3.70;;;;;;;7.55;100.00;100970.00;5031835;28;20153;-76
2022/12/28 07:20:32;;;;;;;8.60;3.40;;;;;;;7.57;100.00;100967.09;5016092;28;20038;-73
2022/12/28 07:22:57;;;;;;;6.93;3.47;;;;;;;7.58;100.00;100963.38;5012996;28;20461;-74
2022/12/28 07:25:23;;;;;;;7.93;3.65;;;;;;;7.60;100.00;100967.53;5012942;28;20480;-74
2022/12/28 07:27:48;;;;;;;6.00;3.50;;;;;;;7.60;100.00;100964.00;5013022;28;20033;-72
2022/12/28 07:30:13;;;;;;;5.70;3.55;;;;;;;7.58;100.00;100969.59;5030491;28;20033;-75
2022/12/28 07:32:38;;;;;;;6.22;3.28;;;;;;;7.58;100.00;100964.22;5032654;28;20465;-74
2022/12/28 07:35:04;;;;;;;5.70;3.28;;;;;;;7.60;100.00;100969.41;5013833;28;20045;-73
2022/12/28 07:37:30;;;;;;;4.72;3.22;;;;;;;7.57;100.00;100957.16;5012812;28;20029;-75
2022/12/28 07:39:55;;;;;;;5.80;3.17;;;;;;;7.61;100.00;100963.00;5027495;28;20531;-75
2022/12/28 07:42:20;;;;;;;4.00;2.85;;;;;;;7.63;100.00;100967.13;5032674;28;20033;-74
2022/12/28 07:44:46;;;;;;;5.05;3.30;;;;;;;7.65;100.00;100968.78;5032550;28;20143;-76
2022/12/28 07:47:12;;;;;;;6.15;3.00;;;;;;;7.63;100.00;100961.72;5031322;28;20084;-74
2022/12/28 07:49:37;;;;;;;5.50;3.05;;;;;;;7.63;100.00;100972.50;5030467;28;20025;-76
2022/12/28 07:52:03;;;;;;;5.28;2.83;;;;;;;7.67;100.00;100972.09;5023925;28;20036;-75
2022/12/28 07:54:28;;;;;;;4.68;3.20;;;;;;;7.69;100.00;100975.44;5012301;28;20044;-75
2022/12/28 07:56:53;;;;;;;4.35;3.10;;;;;;;7.72;100.00;100969.66;5012968;28;20405;-76
2022/12/28 07:59:19;;;;;;;5.38;2.90;;;;;;;7.68;100.00;100973.75;5021744;28;20042;-76
2022/12/28 08:01:44;;;;;;;4.18;2.75;;;;;;;7.70;100.00;100971.69;5029433;28;20108;-73
2022/12/28 08:04:12;;;;;;;6.60;3.20;;;;;;;7.73;100.00;100973.97;5032118;28;20069;-73
2022/12/28 08:06:40;;;;;;;4.80;2.95;;;;;;;7.74;100.00;100967.56;5026636;28;20096;-73
2022/12/28 08:09:07;;;;;;;6.05;3.30;;;;;;;7.72;100.00;100970.47;5031259;28;20057;-74
2022/12/28 08:11:36;;;;;;;6.22;3.25;;;;;;;7.74;100.00;100970.25;5010865;28;20065;-76
2022/12/28 08:14:02;;;;;;;7.22;3.40;;;;;;;7.74;100.00;100968.38;5011304;28;20385;-76
2022/12/28 08:16:34;;;;;;;7.68;3.60;;;;;;;7.76;100.00;100965.50;5011276;28;20088;-73
2022/12/28 08:18:59;;;;;;;7.55;4.07;;;;;;;7.75;100.00;100974.63;5010834;28;20117;-75
2022/12/28 08:21:36;;;;;;;8.93;3.55;;;;;;;7.76;100.00;100977.13;5012943;28;20112;-74
2022/12/28 08:24:02;;;;;;;8.18;3.22;;;;;;;7.78;100.00;100963.44;5012587;28;20042;-74
2022/12/28 08:26:31;;;;;;;6.68;3.45;;;;;;;7.79;100.00;100959.72;5011173;28;20053;-76
2022/12/28 08:28:59;;;;;;;6.72;3.47;;;;;;;7.79;100.00;100959.72;5017611;28;20033;-76
2022/12/28 08:31:29;;;;;;;8.32;3.42;;;;;;;7.80;100.00;100955.97;5032224;28;20041;-76
2022/12/28 08:33:56;;;;;;;9.60;3.33;;;;;;;7.79;100.00;100965.94;5030869;28;20489;-76
2022/12/28 08:36:22;;;;;;;6.65;3.40;;;;;;;7.82;100.00;100959.31;5032142;28;20104;-74
2022/12/28 08:38:47;;;;;;;7.07;3.17;;;;;;;7.82;100.00;100959.31;5029943;28;20125;-74
2022/12/28 08:41:15;;;;;;;7.53;3.55;;;;;;;7.83;100.00;100965.53;5030662;28;20041;-76
2022/12/28 08:43:41;;;;;;;6.63;3.42;;;;;;;7.81;100.00;100952.25;5019238;28;20069;-75
2022/12/28 08:46:18;;;;;;;8.63;3.50;;;;;;;7.83;100.00;100955.56;5016047;28;20069;-77
2022/12/28 08:48:44;;;;;;;8.15;3.67;;;;;;;7.86;100.00;100971.31;5014147;28;20049;-76
2022/12/28 08:51:12;;;;;;;8.40;3.75;;;;;;;7.86;100.00;100960.53;5031183;28;20480;-74
2022/12/28 08:53:37;;;;;;;7.13;3.22;;;;;;;7.85;100.00;100966.97;5015722;28;20492;-74
2022/12/28 08:56:14;;;;;;;10.15;3.50;;;;;;;7.88;100.00;100960.34;5014441;28;20117;-76
2022/12/28 08:58:41;;;;;;;6.80;3.92;;;;;;;7.88;100.00;100958.50;5015763;28;20442;-77
2022/12/28 09:01:09;;;;;;;10.43;3.92;;;;;;;7.86;100.00;100954.34;5031604;28;20081;-74
2022/12/28 09:03:39;;;;;;;10.63;3.92;;;;;;;7.85;100.00;100964.28;5034002;28;20084;-74
2022/12/28 09:06:08;;;;;;;6.73;3.40;;;;;;;7.86;100.00;100960.53;5034214;28;20033;-74
2022/12/28 09:08:34;;;;;;;10.43;4.05;;;;;;;7.85;100.00;100958.91;5032343;28;20055;-76
2022/12/28 09:11:01;;;;;;;10.90;3.60;;;;;;;7.85;100.00;100964.28;5034791;28;20034;-74
2022/12/28 09:13:27;;;;;;;9.77;3.72;;;;;;;7.86;100.00;100965.94;5031622;28;20055;-76
2022/12/28 09:15:59;;;;;;;10.07;3.70;;;;;;;7.85;100.00;100963.44;5035053;28;20029;-76
2022/12/28 09:18:25;;;;;;;7.18;3.70;;;;;;;7.88;100.00;100952.25;5033037;28;20026;-75
2022/12/28 09:20:51;;;;;;;11.48;3.70;;;;;;;7.86;100.00;100954.34;5046897;28;20033;-76
2022/12/28 09:23:17;;;;;;;8.27;3.45;;;;;;;7.88;100.00;100963.88;5046963;28;20029;-74
2022/12/28 09:25:42;;;;;;;7.55;3.30;;;;;;;7.87;100.00;100959.50;5014812;28;20439;-74
2022/12/28 09:28:11;;;;;;;10.32;3.22;;;;;;;7.88;100.00;100963.03;5024019;28;20022;-73
2022/12/28 09:30:44;;;;;;;4.35;3.10;;;;;;;7.89;100.00;100960.13;5013270;28;20029;-74
2022/12/28 09:36:06;;;;;;;5.80;3.33;;;;;;;7.94;100.00;100956.81;5015212;28;20060;-75
2022/12/28 09:38:39;;;;;;;6.55;3.03;;;;;;;7.96;100.00;100960.97;5013769;28;20037;-78
2022/12/28 09:41:29;;;;;;;6.10;3.20;;;;;;;7.99;100.00;100960.56;5033557;28;20025;-75
2022/12/28 09:44:27;;;;;;;7.97;2.97;;;;;;;8.02;100.00;100959.34;5024022;28;20437;-74
2022/12/28 09:47:20;;;;;;;7.50;2.70;;;;;;;8.07;100.00;100961.41;5046232;28;20038;-75
2022/12/28 09:49:49;;;;;;;6.97;2.65;;;;;;;8.09;100.00;100964.72;5023311;28;20053;-76
2022/12/28 09:52:36;;;;;;;5.72;2.33;;;;;;;8.09;100.00;100965.56;5032652;28;20436;-76
2022/12/28 09:55:18;;;;;;;4.13;2.42;;;;;;;8.09;100.00;100959.34;5032862;28;20034;-76
2022/12/28 09:57:56;;;;;;;2.40;2.20;;;;;;;8.11;100.00;100957.28;5031706;28;20384;-78
2022/12/28 10:00:42;;;;;;;4.32;2.30;;;;;;;8.13;100.00;100960.59;5034636;28;20046;-75
2022/12/28 10:03:26;;;;;;;3.03;2.05;;;;;;;8.13;100.00;100961.41;5016269;28;20032;-76
2022/12/28 10:05:57;;;;;;;3.13;1.92;;;;;;;8.16;100.00;100961.00;5023098;28;20405;-76
2022/12/28 10:08:26;;;;;;;2.88;2.20;;;;;;;8.15;100.00;100958.50;5013406;28;20056;-77
2022/12/28 10:10:54;;;;;;;2.97;2.00;;;;;;;8.14;100.00;100952.28;5013137;28;20057;-75
2022/12/28 10:13:26;;;;;;;5.15;2.33;;;;;;;8.13;100.00;100955.19;5022538;28;20072;-75
2022/12/28 10:15:52;;;;;;;3.63;2.08;;;;;;;8.15;100.00;100950.41;5013082;28;20030;-76
2022/12/28 10:18:22;;;;;;;4.50;2.33;;;;;;;8.18;100.00;100944.63;5013553;28;20025;-75
2022/12/28 10:20:48;;;;;;;4.28;2.30;;;;;;;8.18;100.00;100949.19;5020331;28;20029;-75
2022/12/28 10:23:20;;;;;;;4.68;2.28;;;;;;;8.18;100.00;100928.44;5033567;28;20090;-76
2022/12/28 10:25:46;;;;;;;4.03;2.28;;;;;;;8.20;100.00;100934.47;5030421;28;20599;-77
2022/12/28 10:28:13;;;;;;;2.20;1.95;;;;;;;8.21;100.00;100943.38;5022742;28;20038;-77
2022/12/28 10:31:03;;;;;;;4.32;2.28;;;;;;;8.26;100.00;100946.31;5025066;28;20037;-80
2022/12/28 10:33:31;;;;;;;3.63;2.45;;;;;;;8.23;100.00;100939.44;5033106;28;20044;-79
2022/12/28 10:35:57;;;;;;;3.90;2.25;;;;;;;8.21;100.00;100933.41;5017878;28;20026;-75
2022/12/28 10:38:28;;;;;;;3.17;2.15;;;;;;;8.21;100.00;100930.72;5013827;28;20026;-73
2022/12/28 10:41:14;;;;;;;2.50;2.20;;;;;;;8.26;100.00;100936.34;5013503;28;20108;-78
2022/12/28 10:43:43;;;;;;;3.67;2.60;;;;;;;8.23;100.00;100941.28;5013470;28;20030;-73
2022/12/28 10:46:17;;;;;;;4.47;2.65;;;;;;;8.21;100.00;100936.09;5027883;28;20060;-73
2022/12/28 10:48:52;;;;;;;2.58;2.38;;;;;;;8.25;100.00;100925.75;5033259;28;20036;-72
2022/12/28 10:51:20;;;;;;;4.00;2.47;;;;;;;8.25;100.00;100926.56;5032766;28;20071;-75
2022/12/28 10:53:49;;;;;;;3.72;2.47;;;;;;;8.23;100.00;100931.38;5033339;28;20112;-75
2022/12/28 10:56:31;;;;;;;4.55;2.80;;;;;;;8.23;100.00;100927.81;5031206;28;20025;-75
2022/12/28 10:59:11;;;;;;;4.35;2.80;;;;;;;8.24;100.00;100914.13;5031466;28;20107;-81
2022/12/28 11:01:38;;;;;;;4.68;3.05;;;;;;;8.24;100.00;100916.81;5027044;28;20058;-75
2022/12/28 11:04:15;;;;;;;3.97;2.58;;;;;;;8.23;100.00;100914.34;5025652;28;20029;-79
2022/12/28 11:07:00;;;;;;;6.40;2.75;;;;;;;8.26;100.00;100913.94;5032726;28;20029;-75
2022/12/28 11:09:28;;;;;;;7.60;3.10;;;;;;;8.26;100.00;100909.38;5033506;28;20488;-79
2022/12/28 11:11:57;;;;;;;5.30;3.00;;;;;;;8.26;100.00;100917.47;5023554;28;20116;-79
2022/12/28 11:14:34;;;;;;;5.40;2.60;;;;;;;8.26;100.00;100916.66;5012064;28;20064;-80
2022/12/28 11:17:14;;;;;;;5.03;2.60;;;;;;;8.26;100.00;100903.97;5012014;28;20112;-77
2022/12/28 11:19:40;;;;;;;6.18;2.90;;;;;;;8.27;100.00;100908.34;5034089;28;20059;-77
2022/12/28 11:22:10;;;;;;;4.47;2.80;;;;;;;8.28;100.00;100906.47;5035697;28;20029;-79
2022/12/28 11:24:35;;;;;;;6.55;2.92;;;;;;;8.29;100.00;100894.66;5033021;28;20029;-79
2022/12/28 11:27:02;;;;;;;5.15;2.92;;;;;;;8.31;100.00;100888.00;5024473;28;20030;-80
2022/12/28 11:29:27;;;;;;;4.00;2.78;;;;;;;8.32;100.00;100895.06;5024419;28;20469;-80
2022/12/28 11:32:03;;;;;;;3.50;2.60;;;;;;;8.33;100.00;100885.94;5033110;28;20082;-79
2022/12/28 11:34:30;;;;;;;5.30;3.00;;;;;;;8.34;100.00;100874.09;5032389;28;20037;-80
2022/12/28 11:36:56;;;;;;;5.28;2.50;;;;;;;8.34;100.00;100873.28;5032657;28;20063;-78
2022/12/28 11:39:40;;;;;;;5.78;2.50;;;;;;;8.33;100.00;100869.75;5030216;28;20025;-79
2022/12/28 11:42:06;;;;;;;4.60;2.60;;;;;;;8.36;100.00;100868.50;5029837;28;20037;-82
2022/12/28 11:44:38;;;;;;;5.65;2.60;;;;;;;8.36;100.00;100859.59;5044957;28;20419;-78
2022/12/28 11:47:20;;;;;;;6.10;2.70;;;;;;;8.37;100.00;100858.56;5043881;28;20515;-78
2022/12/28 11:49:46;;;;;;;7.57;2.80;;;;;;;8.38;100.00;100854.81;5022339;28;20157;-80
2022/12/28 11:52:26;;;;;;;5.40;2.60;;;;;;;8.38;100.00;100852.97;5031226;28;20036;-74
2022/12/28 11:54:53;;;;;;;4.38;2.40;;;;;;;8.40;100.00;100858.97;5032337;28;20030;-77
2022/12/28 11:57:45;;;;;;;4.78;2.60;;;;;;;8.44;100.00;100845.91;5030089;28;20030;-80
2022/12/28 12:00:19;;;;;;;6.05;2.70;;;;;;;8.41;100.00;100822.03;5022885;28;20069;-78
2022/12/28 12:02:55;;;;;;;8.60;2.78;;;;;;;8.45;100.00;100826.81;5009545;28;20034;-78
2022/12/28 12:05:36;;;;;;;5.65;2.60;;;;;;;8.43;100.00;100833.44;5016045;28;20084;-81
2022/12/28 12:08:10;;;;;;;7.13;3.03;;;;;;;8.42;100.00;100827.19;5032141;28;20385;-81
2022/12/28 12:10:38;;;;;;;7.63;2.72;;;;;;;8.44;100.00;100822.47;5030761;28;20029;-81